Location Norrisville, MD, US

ob CW6888 240530Z AUTO 05000KT  -RA -RA 14/13 A2976 RMK SLPNO 

2017.05.24 0530 UTC
Wind from the NE (51 degrees) at Calm MPH ( KT) gusting to 0.0 MPH (0 KT)
Visibility    Mile(s)
Weather: LIGHT RAIN
Temperature 56.50 F (14 C)
Dew Point 55.09 F (13 C)
Relative Humidity 95%
Pressure   29.76 in. Hg (1008 hPa)
Rain  0.01 in.
Daily Rain  in.

Station Name  Sola Virtus Observatory
Longitude, Latitude  -76.5447, 39.7025
Elevation 738
Station URL http://sola-virtus-observatory.org
Software Type VWS V15.00